Rolling Hills, Wyoming
Current Conditions -  °F | °C
As of 10:53 AM on Tuesday 21 Oct 2014 (Local Time) from KCPR Reporting Station
Clear Clear  
Wind Chill: 66°   Ceiling: Unl
Heat Index: 66°   Visibility: 10mi
Dew Point: 38°   Wind: 24mph
Humidity: 36%   Direction: 200°SSW
Pressure: 29.94"   Gusts: 35mph
Location:  43.0973°N, 105.88°W
Report Text: KCPR 211653Z 20021G30KT 10SM CLR 19/03 A2994 RMK AO2 PK WND 20033/1641 SLP096 T01890033
Loading
Personal Weather Stations






























Interactive Weather Map
Tropical Storm Tracking
New forecast layout! Learn more

10-Day Weather Forecast

Advertisements
Track Severe Weather on mobile